sensor_id;sensor_type;location;lat;lon;timestamp;temperature;humidity
14006;DHT22;7078;51.542;7.314;2023-03-17T00:01:04;9.70;78.10
14006;DHT22;7078;51.542;7.314;2023-03-17T00:03:34;9.70;77.70
14006;DHT22;7078;51.542;7.314;2023-03-17T00:06:01;9.70;77.50
14006;DHT22;7078;51.542;7.314;2023-03-17T00:08:31;9.70;77.10
14006;DHT22;7078;51.542;7.314;2023-03-17T00:10:57;9.80;77.00
14006;DHT22;7078;51.542;7.314;2023-03-17T00:13:23;10.00;76.90
14006;DHT22;7078;51.542;7.314;2023-03-17T00:15:55;9.80;76.50
14006;DHT22;7078;51.542;7.314;2023-03-17T00:18:23;9.90;76.10
14006;DHT22;7078;51.542;7.314;2023-03-17T00:20:49;9.90;75.60
14006;DHT22;7078;51.542;7.314;2023-03-17T00:23:21;10.00;75.30
14006;DHT22;7078;51.542;7.314;2023-03-17T00:25:47;10.00;75.00
14006;DHT22;7078;51.542;7.314;2023-03-17T00:28:17;10.00;75.00
14006;DHT22;7078;51.542;7.314;2023-03-17T00:30:43;10.00;75.10
14006;DHT22;7078;51.542;7.314;2023-03-17T00:33:09;10.00;74.30
14006;DHT22;7078;51.542;7.314;2023-03-17T00:35:36;10.00;74.30
14006;DHT22;7078;51.542;7.314;2023-03-17T00:38:02;10.10;74.40
14006;DHT22;7078;51.542;7.314;2023-03-17T00:40:29;10.10;74.10
14006;DHT22;7078;51.542;7.314;2023-03-17T00:42:56;10.10;74.30
14006;DHT22;7078;51.542;7.314;2023-03-17T00:45:23;10.00;74.10
14006;DHT22;7078;51.542;7.314;2023-03-17T00:47:51;10.10;73.70
14006;DHT22;7078;51.542;7.314;2023-03-17T00:50:20;10.10;73.40
14006;DHT22;7078;51.542;7.314;2023-03-17T00:52:51;10.10;73.60
14006;DHT22;7078;51.542;7.314;2023-03-17T00:55:20;10.10;73.10
14006;DHT22;7078;51.542;7.314;2023-03-17T00:57:47;10.10;73.30
14006;DHT22;7078;51.542;7.314;2023-03-17T01:02:45;10.10;73.90
14006;DHT22;7078;51.542;7.314;2023-03-17T01:05:12;10.00;74.10
14006;DHT22;7078;51.542;7.314;2023-03-17T01:07:38;10.00;74.10
14006;DHT22;7078;51.542;7.314;2023-03-17T01:10:12;10.00;74.40
14006;DHT22;7078;51.542;7.314;2023-03-17T01:12:38;9.90;74.60
14006;DHT22;7078;51.542;7.314;2023-03-17T01:15:04;9.90;75.10
14006;DHT22;7078;51.542;7.314;2023-03-17T01:17:30;9.80;75.40
14006;DHT22;7078;51.542;7.314;2023-03-17T01:19:55;9.80;75.70
14006;DHT22;7078;51.542;7.314;2023-03-17T01:22:22;9.70;76.10
14006;DHT22;7078;51.542;7.314;2023-03-17T01:24:47;9.70;77.30
14006;DHT22;7078;51.542;7.314;2023-03-17T01:27:13;9.70;76.50
14006;DHT22;7078;51.542;7.314;2023-03-17T01:29:39;9.60;76.60
14006;DHT22;7078;51.542;7.314;2023-03-17T01:32:04;9.60;76.40
14006;DHT22;7078;51.542;7.314;2023-03-17T01:34:30;9.70;76.60
14006;DHT22;7078;51.542;7.314;2023-03-17T01:36:56;9.70;76.50
14006;DHT22;7078;51.542;7.314;2023-03-17T01:39:22;9.60;76.60
14006;DHT22;7078;51.542;7.314;2023-03-17T01:41:48;9.70;76.30
14006;DHT22;7078;51.542;7.314;2023-03-17T01:44:16;9.60;76.00
14006;DHT22;7078;51.542;7.314;2023-03-17T01:46:43;9.80;76.10
14006;DHT22;7078;51.542;7.314;2023-03-17T01:51:44;9.70;75.90
14006;DHT22;7078;51.542;7.314;2023-03-17T01:54:14;9.70;76.30
14006;DHT22;7078;51.542;7.314;2023-03-17T01:56:43;9.70;76.30
14006;DHT22;7078;51.542;7.314;2023-03-17T01:59:14;9.60;76.60
14006;DHT22;7078;51.542;7.314;2023-03-17T02:01:44;9.60;76.70
14006;DHT22;7078;51.542;7.314;2023-03-17T02:04:11;9.60;76.90
14006;DHT22;7078;51.542;7.314;2023-03-17T02:06:38;9.60;77.00
14006;DHT22;7078;51.542;7.314;2023-03-17T02:09:03;9.50;76.80
14006;DHT22;7078;51.542;7.314;2023-03-17T02:11:30;9.50;77.10
14006;DHT22;7078;51.542;7.314;2023-03-17T02:13:57;9.50;77.00
14006;DHT22;7078;51.542;7.314;2023-03-17T02:16:23;9.50;76.60
14006;DHT22;7078;51.542;7.314;2023-03-17T02:18:49;9.50;76.70
14006;DHT22;7078;51.542;7.314;2023-03-17T02:23:52;9.60;76.40
14006;DHT22;7078;51.542;7.314;2023-03-17T02:26:19;9.60;76.60
14006;DHT22;7078;51.542;7.314;2023-03-17T02:28:46;9.50;76.40
14006;DHT22;7078;51.542;7.314;2023-03-17T02:31:12;9.60;76.40
14006;DHT22;7078;51.542;7.314;2023-03-17T02:33:38;9.60;76.30
14006;DHT22;7078;51.542;7.314;2023-03-17T02:36:04;9.60;76.20
14006;DHT22;7078;51.542;7.314;2023-03-17T02:38:30;9.60;76.40
14006;DHT22;7078;51.542;7.314;2023-03-17T02:40:55;9.60;76.30
14006;DHT22;7078;51.542;7.314;2023-03-17T02:43:21;9.60;76.30
14006;DHT22;7078;51.542;7.314;2023-03-17T02:45:46;9.60;76.20
14006;DHT22;7078;51.542;7.314;2023-03-17T02:48:12;9.60;76.30
14006;DHT22;7078;51.542;7.314;2023-03-17T02:50:38;9.60;76.40
14006;DHT22;7078;51.542;7.314;2023-03-17T02:53:04;9.60;76.50
14006;DHT22;7078;51.542;7.314;2023-03-17T02:55:29;9.60;76.30
14006;DHT22;7078;51.542;7.314;2023-03-17T02:57:56;9.60;76.30
14006;DHT22;7078;51.542;7.314;2023-03-17T03:00:22;9.60;76.20
14006;DHT22;7078;51.542;7.314;2023-03-17T03:02:48;9.60;76.00
14006;DHT22;7078;51.542;7.314;2023-03-17T03:05:13;9.60;75.90
14006;DHT22;7078;51.542;7.314;2023-03-17T03:07:39;9.60;75.50
14006;DHT22;7078;51.542;7.314;2023-03-17T03:10:05;9.60;75.50
14006;DHT22;7078;51.542;7.314;2023-03-17T03:12:32;9.60;75.40
14006;DHT22;7078;51.542;7.314;2023-03-17T03:14:57;9.60;75.80
14006;DHT22;7078;51.542;7.314;2023-03-17T03:17:23;9.50;75.70
14006;DHT22;7078;51.542;7.314;2023-03-17T03:19:48;9.50;76.30
14006;DHT22;7078;51.542;7.314;2023-03-17T03:22:14;9.40;76.30
14006;DHT22;7078;51.542;7.314;2023-03-17T03:24:40;9.50;76.40
14006;DHT22;7078;51.542;7.314;2023-03-17T03:27:06;9.50;76.30
14006;DHT22;7078;51.542;7.314;2023-03-17T03:29:31;9.50;76.60
14006;DHT22;7078;51.542;7.314;2023-03-17T03:31:57;9.40;76.80
14006;DHT22;7078;51.542;7.314;2023-03-17T03:34:22;9.40;77.00
14006;DHT22;7078;51.542;7.314;2023-03-17T03:36:48;9.30;77.30
14006;DHT22;7078;51.542;7.314;2023-03-17T03:39:14;9.30;77.60
14006;DHT22;7078;51.542;7.314;2023-03-17T03:41:39;9.30;77.70
14006;DHT22;7078;51.542;7.314;2023-03-17T03:44:05;9.30;77.90
14006;DHT22;7078;51.542;7.314;2023-03-17T03:46:31;9.20;77.90
14006;DHT22;7078;51.542;7.314;2023-03-17T03:48:57;9.20;78.00
14006;DHT22;7078;51.542;7.314;2023-03-17T03:51:22;9.20;78.20
14006;DHT22;7078;51.542;7.314;2023-03-17T03:53:48;9.20;78.10
14006;DHT22;7078;51.542;7.314;2023-03-17T03:56:13;9.20;78.20
14006;DHT22;7078;51.542;7.314;2023-03-17T03:58:39;9.20;78.10
14006;DHT22;7078;51.542;7.314;2023-03-17T04:01:07;9.20;78.10
14006;DHT22;7078;51.542;7.314;2023-03-17T04:03:34;9.20;78.10
14006;DHT22;7078;51.542;7.314;2023-03-17T04:05:59;9.20;78.00
14006;DHT22;7078;51.542;7.314;2023-03-17T04:08:25;9.20;77.70
14006;DHT22;7078;51.542;7.314;2023-03-17T04:10:51;9.20;77.70
14006;DHT22;7078;51.542;7.314;2023-03-17T04:13:17;9.20;77.90
14006;DHT22;7078;51.542;7.314;2023-03-17T04:15:43;9.20;77.70
14006;DHT22;7078;51.542;7.314;2023-03-17T04:18:08;9.20;77.70
14006;DHT22;7078;51.542;7.314;2023-03-17T04:20:34;9.20;77.70
14006;DHT22;7078;51.542;7.314;2023-03-17T04:23:00;9.20;77.70
14006;DHT22;7078;51.542;7.314;2023-03-17T04:25:26;9.20;77.50
14006;DHT22;7078;51.542;7.314;2023-03-17T04:27:51;9.20;77.20
14006;DHT22;7078;51.542;7.314;2023-03-17T04:30:17;9.30;76.80
14006;DHT22;7078;51.542;7.314;2023-03-17T04:32:44;9.30;76.50
14006;DHT22;7078;51.542;7.314;2023-03-17T04:35:17;9.30;76.30
14006;DHT22;7078;51.542;7.314;2023-03-17T04:37:43;9.30;76.70
14006;DHT22;7078;51.542;7.314;2023-03-17T04:40:11;9.30;76.30
14006;DHT22;7078;51.542;7.314;2023-03-17T04:42:37;9.30;76.20
14006;DHT22;7078;51.542;7.314;2023-03-17T04:45:08;9.30;76.40
14006;DHT22;7078;51.542;7.314;2023-03-17T04:47:34;9.30;76.40
14006;DHT22;7078;51.542;7.314;2023-03-17T04:50:00;9.30;77.00
14006;DHT22;7078;51.542;7.314;2023-03-17T04:52:26;9.20;76.10
14006;DHT22;7078;51.542;7.314;2023-03-17T04:54:52;9.20;76.30
14006;DHT22;7078;51.542;7.314;2023-03-17T04:57:18;9.20;76.10
14006;DHT22;7078;51.542;7.314;2023-03-17T04:59:43;9.20;76.10
14006;DHT22;7078;51.542;7.314;2023-03-17T05:02:09;9.20;75.90
14006;DHT22;7078;51.542;7.314;2023-03-17T05:04:35;9.20;76.20
14006;DHT22;7078;51.542;7.314;2023-03-17T05:07:00;9.30;75.50
14006;DHT22;7078;51.542;7.314;2023-03-17T05:09:27;9.30;75.10
14006;DHT22;7078;51.542;7.314;2023-03-17T05:11:53;9.40;74.90
14006;DHT22;7078;51.542;7.314;2023-03-17T05:14:18;9.40;74.80
14006;DHT22;7078;51.542;7.314;2023-03-17T05:16:47;9.40;74.90
14006;DHT22;7078;51.542;7.314;2023-03-17T05:19:13;9.30;75.20
14006;DHT22;7078;51.542;7.314;2023-03-17T05:21:39;9.30;75.10
14006;DHT22;7078;51.542;7.314;2023-03-17T05:24:05;9.30;75.20
14006;DHT22;7078;51.542;7.314;2023-03-17T05:26:31;9.30;75.50
14006;DHT22;7078;51.542;7.314;2023-03-17T05:28:56;9.30;75.50
14006;DHT22;7078;51.542;7.314;2023-03-17T05:31:22;9.30;75.40
14006;DHT22;7078;51.542;7.314;2023-03-17T05:33:48;9.30;75.70
14006;DHT22;7078;51.542;7.314;2023-03-17T05:36:14;9.30;75.50
14006;DHT22;7078;51.542;7.314;2023-03-17T05:38:40;9.30;75.50
14006;DHT22;7078;51.542;7.314;2023-03-17T05:41:06;9.30;75.50
14006;DHT22;7078;51.542;7.314;2023-03-17T05:43:32;9.20;75.80
14006;DHT22;7078;51.542;7.314;2023-03-17T05:45:57;9.30;75.50
14006;DHT22;7078;51.542;7.314;2023-03-17T05:48:23;9.30;75.60
14006;DHT22;7078;51.542;7.314;2023-03-17T05:50:48;9.30;75.90
14006;DHT22;7078;51.542;7.314;2023-03-17T05:53:14;9.20;75.90
14006;DHT22;7078;51.542;7.314;2023-03-17T05:55:40;9.30;75.70
14006;DHT22;7078;51.542;7.314;2023-03-17T05:58:06;9.30;75.70
14006;DHT22;7078;51.542;7.314;2023-03-17T06:00:32;9.30;75.80
14006;DHT22;7078;51.542;7.314;2023-03-17T06:02:58;9.30;76.10
14006;DHT22;7078;51.542;7.314;2023-03-17T06:05:23;9.30;76.20
14006;DHT22;7078;51.542;7.314;2023-03-17T06:07:49;9.30;76.10
14006;DHT22;7078;51.542;7.314;2023-03-17T06:10:15;9.30;77.70
14006;DHT22;7078;51.542;7.314;2023-03-17T06:12:40;9.40;77.20
14006;DHT22;7078;51.542;7.314;2023-03-17T06:15:07;9.40;76.50
14006;DHT22;7078;51.542;7.314;2023-03-17T06:17:34;9.40;76.60
14006;DHT22;7078;51.542;7.314;2023-03-17T06:20:00;9.40;77.90
14006;DHT22;7078;51.542;7.314;2023-03-17T06:22:25;9.40;77.40
14006;DHT22;7078;51.542;7.314;2023-03-17T06:24:52;9.40;77.30
14006;DHT22;7078;51.542;7.314;2023-03-17T06:27:18;9.50;76.80
14006;DHT22;7078;51.542;7.314;2023-03-17T06:29:44;9.50;76.60
14006;DHT22;7078;51.542;7.314;2023-03-17T06:32:09;9.50;77.00
14006;DHT22;7078;51.542;7.314;2023-03-17T06:34:35;9.50;76.90
14006;DHT22;7078;51.542;7.314;2023-03-17T06:37:01;9.50;76.90
14006;DHT22;7078;51.542;7.314;2023-03-17T06:39:26;9.50;80.80
14006;DHT22;7078;51.542;7.314;2023-03-17T06:41:52;9.60;79.20
14006;DHT22;7078;51.542;7.314;2023-03-17T06:44:18;9.70;78.70
14006;DHT22;7078;51.542;7.314;2023-03-17T06:46:43;9.80;79.30
14006;DHT22;7078;51.542;7.314;2023-03-17T06:49:09;9.90;80.90
14006;DHT22;7078;51.542;7.314;2023-03-17T06:51:38;9.90;78.40
14006;DHT22;7078;51.542;7.314;2023-03-17T06:54:04;10.00;78.10
14006;DHT22;7078;51.542;7.314;2023-03-17T06:56:31;10.00;77.80
14006;DHT22;7078;51.542;7.314;2023-03-17T06:58:57;10.10;77.90
14006;DHT22;7078;51.542;7.314;2023-03-17T07:01:23;10.20;77.30
14006;DHT22;7078;51.542;7.314;2023-03-17T07:03:48;10.20;78.50
14006;DHT22;7078;51.542;7.314;2023-03-17T07:06:14;10.30;78.40
14006;DHT22;7078;51.542;7.314;2023-03-17T07:08:39;10.40;78.50
14006;DHT22;7078;51.542;7.314;2023-03-17T07:11:06;10.50;75.00
14006;DHT22;7078;51.542;7.314;2023-03-17T07:13:31;10.50;76.10
14006;DHT22;7078;51.542;7.314;2023-03-17T07:16:03;10.60;73.90
14006;DHT22;7078;51.542;7.314;2023-03-17T07:18:30;10.60;73.90
14006;DHT22;7078;51.542;7.314;2023-03-17T07:20:57;10.60;74.10
14006;DHT22;7078;51.542;7.314;2023-03-17T07:23:23;10.70;73.60
14006;DHT22;7078;51.542;7.314;2023-03-17T07:25:49;10.70;72.90
14006;DHT22;7078;51.542;7.314;2023-03-17T07:28:15;10.80;72.60
14006;DHT22;7078;51.542;7.314;2023-03-17T07:30:41;10.90;72.40
14006;DHT22;7078;51.542;7.314;2023-03-17T07:33:14;10.90;72.10
14006;DHT22;7078;51.542;7.314;2023-03-17T07:35:41;11.00;71.50
14006;DHT22;7078;51.542;7.314;2023-03-17T07:38:06;11.10;71.30
14006;DHT22;7078;51.542;7.314;2023-03-17T07:40:32;11.30;70.40
14006;DHT22;7078;51.542;7.314;2023-03-17T07:42:58;11.40;70.20
14006;DHT22;7078;51.542;7.314;2023-03-17T07:45:24;11.50;69.40
14006;DHT22;7078;51.542;7.314;2023-03-17T07:47:49;11.60;69.10
14006;DHT22;7078;51.542;7.314;2023-03-17T07:50:17;11.60;68.60
14006;DHT22;7078;51.542;7.314;2023-03-17T07:52:43;11.70;68.10
14006;DHT22;7078;51.542;7.314;2023-03-17T07:55:08;11.80;68.20
14006;DHT22;7078;51.542;7.314;2023-03-17T07:57:38;11.90;67.90
14006;DHT22;7078;51.542;7.314;2023-03-17T08:00:05;12.00;67.80
14006;DHT22;7078;51.542;7.314;2023-03-17T08:02:34;12.00;67.10
14006;DHT22;7078;51.542;7.314;2023-03-17T08:04:59;11.90;67.20
14006;DHT22;7078;51.542;7.314;2023-03-17T08:07:26;12.10;67.20
14006;DHT22;7078;51.542;7.314;2023-03-17T08:09:51;12.20;66.90
14006;DHT22;7078;51.542;7.314;2023-03-17T08:12:17;12.30;66.30
14006;DHT22;7078;51.542;7.314;2023-03-17T08:14:42;12.40;66.90
14006;DHT22;7078;51.542;7.314;2023-03-17T08:17:08;12.40;67.00
14006;DHT22;7078;51.542;7.314;2023-03-17T08:19:34;12.50;66.10
14006;DHT22;7078;51.542;7.314;2023-03-17T08:22:00;12.60;66.00
14006;DHT22;7078;51.542;7.314;2023-03-17T08:24:27;12.60;66.50
14006;DHT22;7078;51.542;7.314;2023-03-17T08:26:52;12.60;66.30
14006;DHT22;7078;51.542;7.314;2023-03-17T08:29:18;12.70;66.70
14006;DHT22;7078;51.542;7.314;2023-03-17T08:31:44;12.70;65.50
14006;DHT22;7078;51.542;7.314;2023-03-17T08:34:10;12.70;66.00
14006;DHT22;7078;51.542;7.314;2023-03-17T08:36:36;12.70;65.90
14006;DHT22;7078;51.542;7.314;2023-03-17T08:39:03;12.70;65.50
14006;DHT22;7078;51.542;7.314;2023-03-17T08:41:29;12.80;65.80
14006;DHT22;7078;51.542;7.314;2023-03-17T08:43:56;12.90;65.90
14006;DHT22;7078;51.542;7.314;2023-03-17T08:46:25;13.00;66.20
14006;DHT22;7078;51.542;7.314;2023-03-17T08:48:52;13.10;65.60
14006;DHT22;7078;51.542;7.314;2023-03-17T08:51:19;13.10;65.60
14006;DHT22;7078;51.542;7.314;2023-03-17T08:53:45;13.20;65.10
14006;DHT22;7078;51.542;7.314;2023-03-17T08:56:11;13.30;64.90
14006;DHT22;7078;51.542;7.314;2023-03-17T08:58:37;13.40;64.40
14006;DHT22;7078;51.542;7.314;2023-03-17T09:01:07;13.50;63.20
14006;DHT22;7078;51.542;7.314;2023-03-17T09:03:35;13.60;63.40
14006;DHT22;7078;51.542;7.314;2023-03-17T09:06:01;13.60;63.00
14006;DHT22;7078;51.542;7.314;2023-03-17T09:08:30;13.60;62.50
14006;DHT22;7078;51.542;7.314;2023-03-17T09:10:55;13.60;61.80
14006;DHT22;7078;51.542;7.314;2023-03-17T09:13:21;13.60;62.70
14006;DHT22;7078;51.542;7.314;2023-03-17T09:15:47;13.70;61.20
14006;DHT22;7078;51.542;7.314;2023-03-17T09:18:13;13.70;61.50
14006;DHT22;7078;51.542;7.314;2023-03-17T09:20:39;13.70;61.20
14006;DHT22;7078;51.542;7.314;2023-03-17T09:23:06;13.80;60.80
14006;DHT22;7078;51.542;7.314;2023-03-17T09:25:37;13.80;60.80
14006;DHT22;7078;51.542;7.314;2023-03-17T09:28:03;13.90;60.90
14006;DHT22;7078;51.542;7.314;2023-03-17T09:30:29;14.00;60.20
14006;DHT22;7078;51.542;7.314;2023-03-17T09:32:55;14.00;60.50
14006;DHT22;7078;51.542;7.314;2023-03-17T09:35:20;14.10;60.50
14006;DHT22;7078;51.542;7.314;2023-03-17T09:37:47;14.20;60.40
14006;DHT22;7078;51.542;7.314;2023-03-17T09:40:17;14.30;59.80
14006;DHT22;7078;51.542;7.314;2023-03-17T09:45:36;14.60;59.80
14006;DHT22;7078;51.542;7.314;2023-03-17T09:51:06;14.80;59.20
14006;DHT22;7078;51.542;7.314;2023-03-17T09:53:45;15.00;59.20
14006;DHT22;7078;51.542;7.314;2023-03-17T09:56:15;15.00;58.40
14006;DHT22;7078;51.542;7.314;2023-03-17T09:58:52;15.10;58.00
14006;DHT22;7078;51.542;7.314;2023-03-17T10:01:18;15.20;58.80
14006;DHT22;7078;51.542;7.314;2023-03-17T10:03:45;15.30;58.20
14006;DHT22;7078;51.542;7.314;2023-03-17T10:06:23;15.30;57.40
14006;DHT22;7078;51.542;7.314;2023-03-17T10:09:25;15.40;57.80
14006;DHT22;7078;51.542;7.314;2023-03-17T10:12:08;15.60;57.90
14006;DHT22;7078;51.542;7.314;2023-03-17T10:15:00;15.70;57.50
14006;DHT22;7078;51.542;7.314;2023-03-17T10:17:34;15.80;57.20
14006;DHT22;7078;51.542;7.314;2023-03-17T10:20:11;15.90;56.40
14006;DHT22;7078;51.542;7.314;2023-03-17T10:22:47;16.00;56.10
14006;DHT22;7078;51.542;7.314;2023-03-17T10:25:19;16.10;56.20
14006;DHT22;7078;51.542;7.314;2023-03-17T10:27:56;16.20;55.90
14006;DHT22;7078;51.542;7.314;2023-03-17T10:30:24;16.20;55.90
14006;DHT22;7078;51.542;7.314;2023-03-17T10:32:51;16.20;55.20
14006;DHT22;7078;51.542;7.314;2023-03-17T10:35:18;16.10;55.40
14006;DHT22;7078;51.542;7.314;2023-03-17T10:37:46;16.10;55.20
14006;DHT22;7078;51.542;7.314;2023-03-17T10:40:38;16.00;55.30
14006;DHT22;7078;51.542;7.314;2023-03-17T10:43:06;16.00;55.60
14006;DHT22;7078;51.542;7.314;2023-03-17T10:45:38;16.00;55.90
14006;DHT22;7078;51.542;7.314;2023-03-17T10:48:09;16.00;55.40
14006;DHT22;7078;51.542;7.314;2023-03-17T10:50:40;15.90;55.70
14006;DHT22;7078;51.542;7.314;2023-03-17T10:53:17;15.80;55.40
14006;DHT22;7078;51.542;7.314;2023-03-17T10:55:49;15.80;55.90
14006;DHT22;7078;51.542;7.314;2023-03-17T10:58:22;15.90;55.60
14006;DHT22;7078;51.542;7.314;2023-03-17T11:03:27;15.90;55.80
14006;DHT22;7078;51.542;7.314;2023-03-17T11:08:46;16.00;56.00
14006;DHT22;7078;51.542;7.314;2023-03-17T11:11:32;16.00;56.20
14006;DHT22;7078;51.542;7.314;2023-03-17T11:14:03;16.10;56.60
14006;DHT22;7078;51.542;7.314;2023-03-17T11:16:33;16.30;56.40
14006;DHT22;7078;51.542;7.314;2023-03-17T11:19:00;16.40;56.00
14006;DHT22;7078;51.542;7.314;2023-03-17T11:21:31;16.50;55.10
14006;DHT22;7078;51.542;7.314;2023-03-17T11:24:50;16.50;54.90
14006;DHT22;7078;51.542;7.314;2023-03-17T11:27:01;16.60;54.80
14006;DHT22;7078;51.542;7.314;2023-03-17T11:49:09;17.70;52.40
14006;DHT22;7078;51.542;7.314;2023-03-17T11:57:07;18.10;51.40
14006;DHT22;7078;51.542;7.314;2023-03-17T11:59:39;18.20;51.00
14006;DHT22;7078;51.542;7.314;2023-03-17T12:02:31;18.20;50.80
14006;DHT22;7078;51.542;7.314;2023-03-17T12:05:17;18.20;51.20
14006;DHT22;7078;51.542;7.314;2023-03-17T12:10:45;18.40;51.20
14006;DHT22;7078;51.542;7.314;2023-03-17T12:13:20;18.50;51.00
14006;DHT22;7078;51.542;7.314;2023-03-17T12:16:01;18.50;50.20
14006;DHT22;7078;51.542;7.314;2023-03-17T12:18:33;18.50;50.70
14006;DHT22;7078;51.542;7.314;2023-03-17T12:21:11;18.70;50.60
14006;DHT22;7078;51.542;7.314;2023-03-17T12:23:59;18.60;50.10
14006;DHT22;7078;51.542;7.314;2023-03-17T12:26:54;18.60;50.90
14006;DHT22;7078;51.542;7.314;2023-03-17T12:32:02;18.60;49.90
14006;DHT22;7078;51.542;7.314;2023-03-17T12:34:42;18.40;50.10
14006;DHT22;7078;51.542;7.314;2023-03-17T12:37:10;18.40;50.60
14006;DHT22;7078;51.542;7.314;2023-03-17T12:39:36;18.30;50.20
14006;DHT22;7078;51.542;7.314;2023-03-17T12:42:36;18.40;51.10
14006;DHT22;7078;51.542;7.314;2023-03-17T12:50:56;18.30;50.40
14006;DHT22;7078;51.542;7.314;2023-03-17T12:53:33;18.20;50.70
14006;DHT22;7078;51.542;7.314;2023-03-17T12:56:16;18.30;51.00
14006;DHT22;7078;51.542;7.314;2023-03-17T12:58:45;18.30;50.60
14006;DHT22;7078;51.542;7.314;2023-03-17T13:06:32;18.40;50.10
14006;DHT22;7078;51.542;7.314;2023-03-17T13:11:59;18.30;49.90
14006;DHT22;7078;51.542;7.314;2023-03-17T13:14:45;18.20;50.50
14006;DHT22;7078;51.542;7.314;2023-03-17T13:22:22;18.20;50.90
14006;DHT22;7078;51.542;7.314;2023-03-17T13:24:52;18.40;51.00
14006;DHT22;7078;51.542;7.314;2023-03-17T13:35:24;18.40;50.70
14006;DHT22;7078;51.542;7.314;2023-03-17T13:43:21;18.70;50.70
14006;DHT22;7078;51.542;7.314;2023-03-17T13:45:50;18.70;50.70
14006;DHT22;7078;51.542;7.314;2023-03-17T13:48:35;18.70;51.50
14006;DHT22;7078;51.542;7.314;2023-03-17T13:51:11;18.70;50.60
14006;DHT22;7078;51.542;7.314;2023-03-17T13:56:21;18.60;50.70
14006;DHT22;7078;51.542;7.314;2023-03-17T13:59:03;18.70;50.90
14006;DHT22;7078;51.542;7.314;2023-03-17T14:01:46;18.70;50.80
14006;DHT22;7078;51.542;7.314;2023-03-17T14:04:18;18.80;51.00
14006;DHT22;7078;51.542;7.314;2023-03-17T14:06:45;18.90;51.00
14006;DHT22;7078;51.542;7.314;2023-03-17T14:11:53;18.80;50.50
14006;DHT22;7078;51.542;7.314;2023-03-17T14:14:33;18.90;51.00
14006;DHT22;7078;51.542;7.314;2023-03-17T14:17:11;18.80;50.20
14006;DHT22;7078;51.542;7.314;2023-03-17T14:19:38;18.90;50.50
14006;DHT22;7078;51.542;7.314;2023-03-17T14:22:20;18.80;50.70
14006;DHT22;7078;51.542;7.314;2023-03-17T14:24:50;18.80;51.00
14006;DHT22;7078;51.542;7.314;2023-03-17T14:27:17;18.80;51.20
14006;DHT22;7078;51.542;7.314;2023-03-17T14:29:43;18.70;51.50
14006;DHT22;7078;51.542;7.314;2023-03-17T14:32:14;18.70;51.30
14006;DHT22;7078;51.542;7.314;2023-03-17T14:34:52;18.50;51.20
14006;DHT22;7078;51.542;7.314;2023-03-17T14:37:18;18.40;51.70
14006;DHT22;7078;51.542;7.314;2023-03-17T14:39:47;18.40;52.40
14006;DHT22;7078;51.542;7.314;2023-03-17T14:42:13;18.40;52.40
14006;DHT22;7078;51.542;7.314;2023-03-17T14:44:42;18.50;51.90
14006;DHT22;7078;51.542;7.314;2023-03-17T14:47:22;18.50;52.20
14006;DHT22;7078;51.542;7.314;2023-03-17T14:49:51;18.60;52.40
14006;DHT22;7078;51.542;7.314;2023-03-17T14:52:26;18.60;52.30
14006;DHT22;7078;51.542;7.314;2023-03-17T14:54:54;18.50;52.20
14006;DHT22;7078;51.542;7.314;2023-03-17T14:57:26;18.50;52.40
14006;DHT22;7078;51.542;7.314;2023-03-17T14:59:58;18.40;52.70
14006;DHT22;7078;51.542;7.314;2023-03-17T15:02:35;18.50;52.60
14006;DHT22;7078;51.542;7.314;2023-03-17T15:05:39;18.40;52.70
14006;DHT22;7078;51.542;7.314;2023-03-17T15:10:57;18.10;52.60
14006;DHT22;7078;51.542;7.314;2023-03-17T15:13:24;18.10;53.10
14006;DHT22;7078;51.542;7.314;2023-03-17T15:15:50;18.00;53.50
14006;DHT22;7078;51.542;7.314;2023-03-17T15:18:16;18.00;53.30
14006;DHT22;7078;51.542;7.314;2023-03-17T15:20:44;18.10;53.40
14006;DHT22;7078;51.542;7.314;2023-03-17T15:23:19;18.00;53.50
14006;DHT22;7078;51.542;7.314;2023-03-17T15:25:47;17.90;53.40
14006;DHT22;7078;51.542;7.314;2023-03-17T15:28:17;17.80;53.50
14006;DHT22;7078;51.542;7.314;2023-03-17T15:30:45;17.70;53.70
14006;DHT22;7078;51.542;7.314;2023-03-17T15:33:21;17.50;54.50
14006;DHT22;7078;51.542;7.314;2023-03-17T15:35:48;17.40;54.60
14006;DHT22;7078;51.542;7.314;2023-03-17T15:38:14;17.30;54.60
14006;DHT22;7078;51.542;7.314;2023-03-17T15:40:40;17.30;55.10
14006;DHT22;7078;51.542;7.314;2023-03-17T15:43:05;17.20;55.20
14006;DHT22;7078;51.542;7.314;2023-03-17T15:45:31;17.20;55.40
14006;DHT22;7078;51.542;7.314;2023-03-17T15:47:56;17.10;55.60
14006;DHT22;7078;51.542;7.314;2023-03-17T15:50:27;17.10;56.00
14006;DHT22;7078;51.542;7.314;2023-03-17T15:52:55;17.10;56.50
14006;DHT22;7078;51.542;7.314;2023-03-17T15:55:23;17.10;56.00
14006;DHT22;7078;51.542;7.314;2023-03-17T15:57:49;17.00;56.10
14006;DHT22;7078;51.542;7.314;2023-03-17T16:00:19;17.00;56.10
14006;DHT22;7078;51.542;7.314;2023-03-17T16:02:48;16.90;56.60
14006;DHT22;7078;51.542;7.314;2023-03-17T16:05:17;16.90;56.80
14006;DHT22;7078;51.542;7.314;2023-03-17T16:07:43;16.80;57.10
14006;DHT22;7078;51.542;7.314;2023-03-17T16:10:20;16.90;57.10
14006;DHT22;7078;51.542;7.314;2023-03-17T16:12:47;16.80;57.40
14006;DHT22;7078;51.542;7.314;2023-03-17T16:15:18;16.80;57.60
14006;DHT22;7078;51.542;7.314;2023-03-17T16:17:44;16.80;57.70
14006;DHT22;7078;51.542;7.314;2023-03-17T16:20:27;16.80;57.70
14006;DHT22;7078;51.542;7.314;2023-03-17T16:22:59;16.70;57.50
14006;DHT22;7078;51.542;7.314;2023-03-17T16:25:30;16.70;57.40
14006;DHT22;7078;51.542;7.314;2023-03-17T16:27:59;16.70;57.50
14006;DHT22;7078;51.542;7.314;2023-03-17T16:30:28;16.60;57.50
14006;DHT22;7078;51.542;7.314;2023-03-17T16:32:59;16.60;57.70
14006;DHT22;7078;51.542;7.314;2023-03-17T16:35:25;16.60;58.20
14006;DHT22;7078;51.542;7.314;2023-03-17T16:37:51;16.50;58.10
14006;DHT22;7078;51.542;7.314;2023-03-17T16:40:28;16.50;58.10
14006;DHT22;7078;51.542;7.314;2023-03-17T16:42:57;16.40;57.90
14006;DHT22;7078;51.542;7.314;2023-03-17T16:45:31;16.30;58.50
14006;DHT22;7078;51.542;7.314;2023-03-17T16:47:58;16.20;58.60
14006;DHT22;7078;51.542;7.314;2023-03-17T16:50:26;16.20;59.20
14006;DHT22;7078;51.542;7.314;2023-03-17T16:52:52;16.10;59.20
14006;DHT22;7078;51.542;7.314;2023-03-17T16:55:18;16.10;58.70
14006;DHT22;7078;51.542;7.314;2023-03-17T16:57:46;16.00;58.70
14006;DHT22;7078;51.542;7.314;2023-03-17T17:00:20;15.90;58.90
14006;DHT22;7078;51.542;7.314;2023-03-17T17:02:46;15.80;59.90
14006;DHT22;7078;51.542;7.314;2023-03-17T17:05:24;15.80;59.40
14006;DHT22;7078;51.542;7.314;2023-03-17T17:07:51;15.70;59.30
14006;DHT22;7078;51.542;7.314;2023-03-17T17:10:19;15.60;59.50
14006;DHT22;7078;51.542;7.314;2023-03-17T17:12:45;15.50;59.50
14006;DHT22;7078;51.542;7.314;2023-03-17T17:15:13;15.40;59.60
14006;DHT22;7078;51.542;7.314;2023-03-17T17:17:41;15.30;59.60
14006;DHT22;7078;51.542;7.314;2023-03-17T17:20:35;15.20;60.00
14006;DHT22;7078;51.542;7.314;2023-03-17T17:23:04;15.20;60.50
14006;DHT22;7078;51.542;7.314;2023-03-17T17:25:30;15.10;60.60
14006;DHT22;7078;51.542;7.314;2023-03-17T17:27:56;15.00;61.10
14006;DHT22;7078;51.542;7.314;2023-03-17T17:30:24;15.00;61.00
14006;DHT22;7078;51.542;7.314;2023-03-17T17:32:52;15.00;61.30